createdAt,value
2022-11-03T00:01:35.825Z,7.18
2022-11-03T00:04:03.492Z,9.50
2022-11-03T00:06:31.869Z,10.23
2022-11-03T00:09:00.497Z,9.48
2022-11-03T00:11:28.233Z,9.27
2022-11-03T00:13:56.144Z,10.52
2022-11-03T00:16:23.661Z,8.52
2022-11-03T00:18:51.872Z,10.85
2022-11-03T00:21:19.550Z,8.80
2022-11-03T00:23:47.127Z,10.88
2022-11-03T00:26:16.734Z,10.00
2022-11-03T00:28:45.963Z,10.15
2022-11-03T00:31:15.679Z,9.60
2022-11-03T00:33:44.254Z,10.68
2022-11-03T00:36:16.387Z,9.27
2022-11-03T00:38:44.305Z,9.17
2022-11-03T00:41:12.688Z,8.10
2022-11-03T00:43:40.655Z,10.18
2022-11-03T00:46:09.487Z,9.60
2022-11-03T00:48:37.732Z,9.85
2022-11-03T00:51:14.773Z,9.68
2022-11-03T00:53:44.133Z,9.13
2022-11-03T00:56:12.766Z,10.07
2022-11-03T00:58:40.381Z,10.10
2022-11-03T01:01:09.347Z,9.82
2022-11-03T01:03:38.396Z,8.50
2022-11-03T01:06:31.524Z,10.43
2022-11-03T01:08:59.897Z,10.80
2022-11-03T01:11:45.529Z,11.13
2022-11-03T01:14:14.647Z,9.73
2022-11-03T01:16:42.563Z,10.40
2022-11-03T01:19:10.014Z,9.57
2022-11-03T01:21:37.448Z,11.80
2022-11-03T01:24:05.367Z,11.05
2022-11-03T01:26:33.177Z,11.27
2022-11-03T01:29:01.237Z,10.88
2022-11-03T01:31:28.993Z,11.07
2022-11-03T01:33:57.251Z,10.98
2022-11-03T01:36:25.686Z,11.82
2022-11-03T01:38:54.526Z,10.02
2022-11-03T01:41:23.616Z,10.60
2022-11-03T01:44:11.189Z,11.45
2022-11-03T01:46:49.356Z,12.00
2022-11-03T01:49:19.800Z,10.60
2022-11-03T01:51:51.108Z,11.57
2022-11-03T01:54:20.556Z,9.95
2022-11-03T01:56:48.311Z,11.73
2022-11-03T01:59:17.470Z,13.30
2022-11-03T02:01:46.552Z,12.55
2022-11-03T02:04:24.572Z,12.80
2022-11-03T02:06:55.724Z,12.10
2022-11-03T02:09:24.581Z,13.10
2022-11-03T02:12:08.303Z,11.45
2022-11-03T02:14:38.012Z,10.55
2022-11-03T02:17:08.562Z,13.95
2022-11-03T02:19:47.492Z,11.45
2022-11-03T02:22:33.539Z,12.13
2022-11-03T02:25:06.913Z,12.85
2022-11-03T02:27:34.412Z,10.13
2022-11-03T02:30:03.605Z,11.30
2022-11-03T02:32:34.379Z,9.60
2022-11-03T02:35:06.535Z,8.95
2022-11-03T02:37:36.349Z,9.23
2022-11-03T02:40:14.387Z,7.78
2022-11-03T02:42:43.435Z,9.65
2022-11-03T02:45:14.784Z,9.45
2022-11-03T02:47:45.461Z,10.15
2022-11-03T02:50:12.937Z,9.07
2022-11-03T02:52:44.850Z,9.25
2022-11-03T02:55:15.022Z,9.23
2022-11-03T02:57:51.729Z,9.63
2022-11-03T03:00:19.317Z,6.97
2022-11-03T03:02:49.677Z,5.93
2022-11-03T03:05:18.457Z,6.85
2022-11-03T03:07:49.066Z,8.18
2022-11-03T03:10:22.099Z,7.55
2022-11-03T03:15:17.710Z,5.10
2022-11-03T03:17:53.440Z,5.57
2022-11-03T03:20:25.949Z,5.40
2022-11-03T03:22:59.621Z,5.50
2022-11-03T03:25:27.066Z,6.22
2022-11-03T03:27:58.078Z,4.82
2022-11-03T03:30:25.726Z,5.63
2022-11-03T03:32:53.572Z,5.95
2022-11-03T03:35:23.195Z,5.20
2022-11-03T03:37:52.177Z,5.40
2022-11-03T03:40:29.555Z,5.30
2022-11-03T03:42:58.199Z,5.07
2022-11-03T03:45:26.977Z,4.78
2022-11-03T03:47:57.728Z,5.60
2022-11-03T03:50:27.800Z,4.13
2022-11-03T03:52:59.120Z,4.78
2022-11-03T03:55:32.525Z,4.85
2022-11-03T03:58:00.571Z,3.88
2022-11-03T04:00:28.221Z,4.85
2022-11-03T04:03:00.529Z,4.75
2022-11-03T04:05:29.665Z,6.00
2022-11-03T04:07:57.442Z,3.85
2022-11-03T04:10:25.490Z,4.75
2022-11-03T04:13:11.278Z,4.45
2022-11-03T04:15:53.955Z,4.45
2022-11-03T04:18:40.735Z,4.85
2022-11-03T04:21:28.588Z,5.15
2022-11-03T04:23:56.216Z,4.45
2022-11-03T04:26:24.211Z,5.32
2022-11-03T04:28:53.174Z,3.88
2022-11-03T04:31:21.082Z,4.30
2022-11-03T04:33:49.053Z,4.97
2022-11-03T04:36:20.891Z,4.97
2022-11-03T04:38:48.935Z,6.18
2022-11-03T04:41:18.244Z,4.68
2022-11-03T04:43:47.196Z,4.78
2022-11-03T04:46:18.655Z,3.90
2022-11-03T04:48:48.065Z,5.53
2022-11-03T04:51:20.265Z,3.83
2022-11-03T04:53:51.220Z,4.77
2022-11-03T04:56:20.755Z,3.85
2022-11-03T04:58:48.908Z,5.18
2022-11-03T05:01:23.778Z,4.45
2022-11-03T05:03:54.464Z,4.60
2022-11-03T05:06:27.534Z,4.57
2022-11-03T05:08:59.846Z,5.25
2022-11-03T05:11:37.151Z,4.53
2022-11-03T05:14:10.933Z,4.05
2022-11-03T05:16:38.426Z,4.00
2022-11-03T05:19:09.763Z,4.03
2022-11-03T05:21:37.243Z,4.35
2022-11-03T05:24:11.029Z,4.35
2022-11-03T05:26:38.726Z,3.92
2022-11-03T05:29:24.860Z,4.00
2022-11-03T05:31:54.144Z,3.78
2022-11-03T05:34:24.822Z,4.55
2022-11-03T05:36:52.355Z,4.43
2022-11-03T05:39:35.505Z,3.05
2022-11-03T05:42:03.961Z,3.38
2022-11-03T05:44:40.072Z,4.18
2022-11-03T05:47:15.223Z,3.88
2022-11-03T05:49:42.879Z,3.53
2022-11-03T05:52:21.762Z,3.58
2022-11-03T05:54:50.778Z,3.38
2022-11-03T05:57:19.051Z,3.22
2022-11-03T05:59:48.232Z,3.80
2022-11-03T06:02:34.333Z,3.15
2022-11-03T06:05:01.985Z,3.08
2022-11-03T06:07:31.076Z,3.97
2022-11-03T06:09:59.122Z,3.42
2022-11-03T06:12:27.116Z,4.57
2022-11-03T06:14:54.640Z,3.50
2022-11-03T06:17:27.720Z,4.85
2022-11-03T06:22:27.082Z,3.40
2022-11-03T06:25:00.675Z,4.17
2022-11-03T06:27:31.609Z,3.13
2022-11-03T06:30:02.291Z,3.58
2022-11-03T06:32:30.306Z,3.63
2022-11-03T06:34:59.486Z,4.00
2022-11-03T06:37:29.692Z,3.95
2022-11-03T06:40:25.370Z,4.97
2022-11-03T06:42:53.908Z,3.97
2022-11-03T06:45:25.365Z,4.05
2022-11-03T06:47:56.115Z,3.40
2022-11-03T06:50:26.199Z,6.00
2022-11-03T06:52:53.993Z,4.03
2022-11-03T06:55:23.572Z,4.55
2022-11-03T06:57:54.469Z,3.70
2022-11-03T07:00:34.674Z,3.75
2022-11-03T07:03:06.749Z,5.47
2022-11-03T07:05:34.803Z,4.55
2022-11-03T07:08:14.246Z,4.95
2022-11-03T07:10:41.787Z,4.10
2022-11-03T07:13:17.757Z,4.50
2022-11-03T07:15:46.486Z,4.22
2022-11-03T07:18:20.994Z,3.50
2022-11-03T07:20:49.371Z,5.95
2022-11-03T07:23:20.245Z,4.13
2022-11-03T07:25:54.280Z,5.13
2022-11-03T07:28:32.840Z,4.18
2022-11-03T07:31:02.100Z,4.30
2022-11-03T07:33:31.468Z,5.22
2022-11-03T07:36:14.912Z,6.60
2022-11-03T07:38:44.595Z,5.53
2022-11-03T07:41:16.919Z,5.18
2022-11-03T07:43:53.258Z,4.68
2022-11-03T07:46:22.093Z,6.05
2022-11-03T07:48:51.107Z,6.05
2022-11-03T07:51:37.161Z,5.45
2022-11-03T07:54:11.230Z,6.00
2022-11-03T07:56:49.239Z,6.03
2022-11-03T07:59:21.826Z,5.75
2022-11-03T08:01:51.009Z,5.38
2022-11-03T08:04:21.047Z,5.40
2022-11-03T08:06:49.153Z,4.32
2022-11-03T08:09:17.001Z,4.70
2022-11-03T08:11:44.836Z,6.20
2022-11-03T08:14:12.577Z,5.00
2022-11-03T08:16:40.521Z,4.28
2022-11-03T08:19:08.686Z,5.60
2022-11-03T08:21:36.455Z,5.75
2022-11-03T08:24:04.429Z,5.47
2022-11-03T08:26:31.961Z,5.25
2022-11-03T08:28:59.446Z,5.47
2022-11-03T08:31:26.994Z,4.03
2022-11-03T08:33:54.515Z,3.92
2022-11-03T08:36:22.650Z,3.15
2022-11-03T08:38:50.183Z,3.95
2022-11-03T08:41:17.706Z,4.13
2022-11-03T08:43:45.260Z,3.47
2022-11-03T08:46:17.532Z,4.20
2022-11-03T08:48:46.002Z,4.10
2022-11-03T08:51:14.551Z,4.80
2022-11-03T08:53:45.487Z,4.30
2022-11-03T08:56:15.122Z,4.07
2022-11-03T08:58:44.908Z,3.63
2022-11-03T09:01:14.306Z,5.68
2022-11-03T09:03:42.612Z,5.10
2022-11-03T09:06:10.601Z,4.07
2022-11-03T09:11:25.665Z,4.95
2022-11-03T09:13:53.204Z,4.38
2022-11-03T09:16:20.715Z,3.60
2022-11-03T09:18:48.322Z,5.03
2022-11-03T09:21:16.140Z,4.60
2022-11-03T09:23:43.604Z,4.95
2022-11-03T09:26:11.188Z,4.53
2022-11-03T09:28:38.698Z,4.63
2022-11-03T09:31:06.255Z,4.80
2022-11-03T09:33:33.833Z,5.38
2022-11-03T09:36:02.952Z,6.70
2022-11-03T09:38:30.496Z,4.05
2022-11-03T09:40:59.235Z,5.05
2022-11-03T09:43:26.797Z,4.18
2022-11-03T09:45:54.781Z,5.25
2022-11-03T09:48:22.322Z,5.20
2022-11-03T09:50:52.746Z,6.32
2022-11-03T09:53:20.491Z,5.68
2022-11-03T09:55:48.006Z,5.68
2022-11-03T09:58:17.476Z,5.65
2022-11-03T10:00:45.581Z,5.93
2022-11-03T10:03:17.660Z,4.43
2022-11-03T10:05:45.934Z,5.57
2022-11-03T10:08:30.638Z,3.65
2022-11-03T10:10:58.784Z,5.43
2022-11-03T10:13:26.262Z,4.43
2022-11-03T10:15:53.929Z,5.93
2022-11-03T10:18:21.745Z,4.45
2022-11-03T10:20:49.267Z,5.30
2022-11-03T10:23:16.804Z,4.32
2022-11-03T10:25:45.237Z,6.35
2022-11-03T10:28:15.836Z,3.80
2022-11-03T10:31:10.748Z,6.93
2022-11-03T10:33:41.287Z,5.95
2022-11-03T10:36:17.809Z,5.47
2022-11-03T10:38:46.172Z,5.25
2022-11-03T10:41:17.952Z,5.15
2022-11-03T10:43:46.531Z,6.38
2022-11-03T10:46:36.676Z,8.63
2022-11-03T10:51:35.279Z,5.55
2022-11-03T10:54:03.776Z,6.53
2022-11-03T10:56:32.549Z,6.03
2022-11-03T10:59:01.316Z,5.57
2022-11-03T11:01:29.070Z,7.53
2022-11-03T11:03:56.875Z,9.18
2022-11-03T11:06:26.442Z,8.00
2022-11-03T11:08:59.764Z,9.93
2022-11-03T11:11:28.197Z,6.43
2022-11-03T11:14:15.989Z,7.35
2022-11-03T11:16:56.660Z,8.15
2022-11-03T11:19:25.125Z,8.25
2022-11-03T11:21:55.625Z,8.82
2022-11-03T11:24:41.785Z,11.45
2022-11-03T11:27:27.556Z,12.20
2022-11-03T11:29:55.101Z,9.60
2022-11-03T11:32:37.891Z,7.38
2022-11-03T11:35:06.153Z,14.25
2022-11-03T11:37:35.511Z,10.48
2022-11-03T11:40:03.401Z,14.82
2022-11-03T11:42:33.649Z,13.95
2022-11-03T11:45:04.700Z,11.70
2022-11-03T11:47:33.953Z,10.48
2022-11-03T11:50:07.660Z,13.07
2022-11-03T11:52:39.716Z,10.55
2022-11-03T11:55:07.546Z,13.65
2022-11-03T11:57:35.943Z,12.38
2022-11-03T12:00:03.786Z,12.65
2022-11-03T12:02:31.880Z,13.70
2022-11-03T12:05:04.492Z,13.05
2022-11-03T12:07:35.760Z,11.77
2022-11-03T12:10:17.905Z,13.95
2022-11-03T12:12:45.820Z,13.50
2022-11-03T12:15:31.660Z,14.85
2022-11-03T12:17:59.192Z,12.65
2022-11-03T12:20:36.864Z,15.07
2022-11-03T12:23:04.449Z,12.55
2022-11-03T12:25:36.914Z,18.77
2022-11-03T12:28:04.779Z,11.90
2022-11-03T12:30:36.987Z,12.52
2022-11-03T12:33:07.361Z,15.88
2022-11-03T12:35:36.418Z,14.25
2022-11-03T12:38:03.944Z,14.32
2022-11-03T12:40:31.411Z,17.55
2022-11-03T12:42:58.982Z,10.65
2022-11-03T12:45:26.558Z,13.40
2022-11-03T12:47:54.154Z,18.48
2022-11-03T12:50:21.734Z,19.88
2022-11-03T12:52:49.189Z,17.77
2022-11-03T12:55:16.814Z,17.35
2022-11-03T12:57:46.513Z,15.82
2022-11-03T13:00:15.078Z,14.52
2022-11-03T13:02:42.757Z,17.75
2022-11-03T13:05:10.578Z,21.25
2022-11-03T13:07:38.124Z,14.75
2022-11-03T13:10:05.834Z,16.90
2022-11-03T13:12:33.744Z,21.40
2022-11-03T13:15:01.948Z,15.02
2022-11-03T13:17:40.260Z,15.63
2022-11-03T13:20:17.075Z,16.08
2022-11-03T13:22:44.550Z,13.30
2022-11-03T13:25:12.146Z,14.02
2022-11-03T13:27:39.670Z,14.77
2022-11-03T13:30:08.204Z,19.45
2022-11-03T13:32:36.727Z,14.82
2022-11-03T13:35:04.980Z,19.98
2022-11-03T13:37:33.774Z,21.70
2022-11-03T13:40:01.329Z,16.48
2022-11-03T13:42:28.874Z,21.33
2022-11-03T13:44:59.167Z,19.02
2022-11-03T13:47:44.059Z,16.60
2022-11-03T13:50:17.370Z,17.02
2022-11-03T13:52:45.561Z,19.00
2022-11-03T14:00:48.299Z,21.83
2022-11-03T14:06:05.580Z,18.60
2022-11-03T14:08:34.227Z,16.30
2022-11-03T14:11:21.563Z,17.80
2022-11-03T14:13:49.089Z,18.85
2022-11-03T14:16:16.627Z,21.35
2022-11-03T14:18:44.978Z,18.95
2022-11-03T14:21:12.639Z,21.27
2022-11-03T14:23:40.114Z,23.15
2022-11-03T14:26:23.719Z,22.92
2022-11-03T14:28:55.112Z,23.80
2022-11-03T14:31:22.524Z,21.23
2022-11-03T14:33:50.020Z,18.95
2022-11-03T14:36:17.510Z,23.02
2022-11-03T14:38:49.897Z,25.25
2022-11-03T14:41:36.640Z,21.60
2022-11-03T14:44:04.275Z,20.65
2022-11-03T14:46:31.928Z,17.73
2022-11-03T14:48:59.465Z,19.63
2022-11-03T14:51:26.933Z,19.75
2022-11-03T14:53:54.496Z,19.60
2022-11-03T14:56:21.934Z,18.70
2022-11-03T14:58:50.885Z,17.27
2022-11-03T15:01:18.971Z,19.15
2022-11-03T15:03:46.634Z,17.10
2022-11-03T15:06:14.387Z,18.30
2022-11-03T15:08:42.956Z,18.33
2022-11-03T15:11:11.201Z,18.33
2022-11-03T15:13:43.986Z,17.17
2022-11-03T15:16:14.697Z,17.48
2022-11-03T15:18:42.349Z,18.13
2022-11-03T15:21:09.857Z,17.05
2022-11-03T15:26:25.387Z,15.15
2022-11-03T15:28:53.490Z,17.17
2022-11-03T15:31:21.893Z,13.73
2022-11-03T15:33:49.438Z,15.25
2022-11-03T15:36:17.084Z,17.73
2022-11-03T15:38:44.604Z,15.48
2022-11-03T15:41:17.873Z,17.17
2022-11-03T15:43:46.394Z,16.42
2022-11-03T15:46:14.220Z,14.57
2022-11-03T15:48:44.811Z,15.30
2022-11-03T15:51:12.825Z,16.92
2022-11-03T15:53:40.667Z,15.93
2022-11-03T15:56:08.475Z,14.90
2022-11-03T15:58:36.034Z,17.08
2022-11-03T16:01:04.159Z,18.60
2022-11-03T16:03:32.738Z,15.30
2022-11-03T16:06:00.685Z,16.52
2022-11-03T16:08:28.453Z,15.85
2022-11-03T16:10:58.260Z,15.95
2022-11-03T16:13:26.434Z,14.98
2022-11-03T16:15:56.667Z,14.57
2022-11-03T16:18:24.696Z,14.73
2022-11-03T16:20:52.588Z,15.38
2022-11-03T16:23:19.978Z,12.27
2022-11-03T16:25:47.480Z,15.45
2022-11-03T16:28:15.185Z,12.88
2022-11-03T16:30:43.729Z,14.60
2022-11-03T16:33:11.237Z,13.48
2022-11-03T16:35:38.735Z,14.30
2022-11-03T16:38:08.700Z,15.13
2022-11-03T16:40:36.358Z,12.93
2022-11-03T16:43:03.767Z,15.25
2022-11-03T16:45:34.978Z,15.23
2022-11-03T16:48:05.395Z,13.02
2022-11-03T16:50:33.335Z,11.20
2022-11-03T16:53:01.318Z,12.38
2022-11-03T16:55:28.879Z,11.88
2022-11-03T16:57:56.977Z,11.20
2022-11-03T17:00:24.869Z,11.40
2022-11-03T17:02:53.713Z,12.43
2022-11-03T17:05:22.292Z,11.38
2022-11-03T17:07:53.620Z,12.27
2022-11-03T17:10:21.811Z,13.50
2022-11-03T17:12:51.040Z,10.98
2022-11-03T17:15:20.830Z,11.98
2022-11-03T17:17:48.975Z,12.05
2022-11-03T17:20:16.816Z,10.70
2022-11-03T17:22:44.594Z,11.63
2022-11-03T17:25:13.519Z,11.07
2022-11-03T17:27:54.892Z,10.73
2022-11-03T17:30:25.319Z,11.60
2022-11-03T17:32:53.864Z,10.75
2022-11-03T17:35:23.934Z,11.50
2022-11-03T17:37:52.004Z,9.27
2022-11-03T17:40:23.963Z,9.82
2022-11-03T17:42:51.867Z,9.50
2022-11-03T17:45:21.399Z,10.88
2022-11-03T17:47:51.629Z,9.10
2022-11-03T17:50:24.219Z,10.25
2022-11-03T17:52:52.692Z,9.55
2022-11-03T17:55:26.373Z,8.07
2022-11-03T17:57:54.902Z,9.55
2022-11-03T18:00:23.683Z,9.20
2022-11-03T18:02:52.533Z,9.27
2022-11-03T18:05:32.912Z,11.27
2022-11-03T18:08:01.353Z,11.25
2022-11-03T18:10:37.130Z,10.70
2022-11-03T18:13:19.159Z,12.85
2022-11-03T18:15:49.104Z,12.68
2022-11-03T18:18:19.621Z,11.35
2022-11-03T18:20:52.897Z,10.85
2022-11-03T18:23:25.601Z,10.50
2022-11-03T18:25:53.527Z,11.73
2022-11-03T18:28:21.175Z,12.05
2022-11-03T18:30:50.303Z,11.77
2022-11-03T18:33:24.108Z,11.40
2022-11-03T18:35:51.900Z,11.43
2022-11-03T18:38:19.650Z,12.55
2022-11-03T18:40:47.174Z,11.35
2022-11-03T18:43:23.785Z,11.52
2022-11-03T18:46:15.468Z,11.60
2022-11-03T18:48:43.225Z,12.77
2022-11-03T18:51:12.110Z,11.00
2022-11-03T18:53:39.977Z,11.75
2022-11-03T18:56:10.778Z,11.60
2022-11-03T18:58:40.056Z,12.02
2022-11-03T19:01:08.454Z,11.48
2022-11-03T19:03:36.271Z,14.07
2022-11-03T19:06:04.491Z,11.82
2022-11-03T19:08:35.145Z,12.25
2022-11-03T19:11:04.457Z,12.15
2022-11-03T19:13:35.617Z,11.25
2022-11-03T19:16:09.211Z,10.18
2022-11-03T19:18:36.958Z,12.25
2022-11-03T19:21:06.959Z,10.10
2022-11-03T19:23:34.542Z,12.77
2022-11-03T19:26:02.243Z,12.90
2022-11-03T19:28:30.633Z,13.07
2022-11-03T19:36:41.089Z,14.03
2022-11-03T19:39:26.338Z,12.63
2022-11-03T19:42:01.832Z,12.65
2022-11-03T19:47:15.421Z,12.15
2022-11-03T19:49:44.357Z,13.35
2022-11-03T19:52:16.853Z,11.50
2022-11-03T19:54:46.519Z,11.98
2022-11-03T19:57:14.977Z,13.55
2022-11-03T20:30:25.179Z,13.00
2022-11-03T20:35:42.566Z,12.93
2022-11-03T20:38:12.654Z,14.15
2022-11-03T20:43:27.204Z,13.90
2022-11-03T20:45:56.337Z,14.57
2022-11-03T20:48:24.469Z,13.40
2022-11-03T20:50:52.265Z,13.50
2022-11-03T20:53:21.402Z,16.92
2022-11-03T20:55:49.510Z,16.77
2022-11-03T20:58:22.132Z,18.25
2022-11-03T21:03:53.518Z,17.73
2022-11-03T21:06:19.802Z,15.73
2022-11-03T21:08:48.609Z,16.88
2022-11-03T21:11:25.912Z,16.98
2022-11-03T21:14:01.487Z,16.60
2022-11-03T21:16:48.824Z,16.48
2022-11-03T21:25:18.619Z,16.17
2022-11-03T21:30:24.332Z,17.77
2022-11-03T21:32:52.291Z,19.92
2022-11-03T21:35:21.539Z,18.45
2022-11-03T21:37:49.074Z,18.52
2022-11-03T21:40:17.018Z,18.67
2022-11-03T21:43:03.177Z,18.60
2022-11-03T21:45:30.797Z,17.45
2022-11-03T21:50:46.773Z,16.98
2022-11-03T21:58:25.805Z,22.48
2022-11-03T22:00:53.528Z,19.63
2022-11-03T22:03:21.793Z,20.55
2022-11-03T22:05:49.407Z,18.50
2022-11-03T22:08:17.122Z,19.02
2022-11-03T22:10:44.783Z,22.70
2022-11-03T22:13:15.485Z,20.60
2022-11-03T22:16:01.567Z,20.67
2022-11-03T22:18:29.373Z,19.42
2022-11-03T22:21:16.631Z,20.30
2022-11-03T22:24:23.838Z,17.67
2022-11-03T22:26:57.581Z,18.75
2022-11-03T22:29:43.442Z,18.73
2022-11-03T22:32:15.146Z,19.00
2022-11-03T22:35:01.070Z,19.48
2022-11-03T22:40:14.224Z,19.73
2022-11-03T22:43:00.567Z,19.23
2022-11-03T22:45:46.441Z,19.77
2022-11-03T22:48:14.158Z,19.73
2022-11-03T22:50:41.928Z,21.73
2022-11-03T22:53:27.685Z,19.20
2022-11-03T22:55:55.298Z,19.75
2022-11-03T22:58:27.862Z,18.27
2022-11-03T23:01:00.190Z,20.67
2022-11-03T23:03:30.926Z,16.95
2022-11-03T23:06:02.497Z,18.60
2022-11-03T23:08:56.956Z,18.60
2022-11-03T23:11:26.231Z,18.40
2022-11-03T23:13:54.844Z,20.25
2022-11-03T23:16:26.767Z,19.50
2022-11-03T23:19:13.006Z,18.30
2022-11-03T23:21:40.801Z,22.33
2022-11-03T23:24:26.852Z,22.27
2022-11-03T23:26:54.477Z,22.95
2022-11-03T23:29:22.047Z,19.90
2022-11-03T23:31:49.707Z,18.52
2022-11-03T23:34:17.246Z,21.20
2022-11-03T23:36:44.888Z,20.25
2022-11-03T23:39:16.533Z,20.70
2022-11-03T23:41:44.864Z,17.98
2022-11-03T23:44:15.245Z,19.38
2022-11-03T23:47:01.664Z,19.60
2022-11-03T23:49:29.337Z,20.40
2022-11-03T23:51:56.831Z,23.10
2022-11-03T23:54:25.935Z,19.23
2022-11-03T23:57:11.997Z,18.77
2022-11-03T23:59:39.596Z,19.55
